createdAt,value
2017-10-28T00:00:26.792Z,96
2017-10-28T00:01:29.508Z,96
2017-10-28T00:02:31.886Z,96
2017-10-28T00:03:34.271Z,97
2017-10-28T00:04:36.641Z,97
2017-10-28T00:05:39.357Z,97
2017-10-28T00:06:41.728Z,97
2017-10-28T00:07:44.101Z,97
2017-10-28T00:08:46.463Z,97
2017-10-28T00:09:48.831Z,97
2017-10-28T00:10:51.216Z,97
2017-10-28T00:11:53.586Z,97
2017-10-28T00:12:55.959Z,97
2017-10-28T00:13:58.356Z,97
2017-10-28T00:15:00.709Z,97
2017-10-28T00:16:03.092Z,97
2017-10-28T00:17:05.463Z,97
2017-10-28T00:18:07.820Z,97
2017-10-28T00:19:10.197Z,97
2017-10-28T00:20:12.915Z,97
2017-10-28T00:21:15.284Z,97
2017-10-28T00:22:17.660Z,97
2017-10-28T00:23:20.036Z,97
2017-10-28T00:24:22.403Z,97
2017-10-28T00:25:24.784Z,97
2017-10-28T00:26:27.501Z,97
2017-10-28T00:27:29.874Z,97
2017-10-28T00:28:32.248Z,97
2017-10-28T00:29:34.625Z,97
2017-10-28T00:30:36.994Z,97
2017-10-28T00:31:39.368Z,97
2017-10-28T00:32:41.738Z,97
2017-10-28T00:33:44.105Z,97
2017-10-28T00:34:46.474Z,97
2017-10-28T00:35:49.225Z,97
2017-10-28T00:36:51.593Z,96
2017-10-28T00:37:53.976Z,96
2017-10-28T00:38:56.347Z,96
2017-10-28T00:39:58.718Z,96
2017-10-28T00:41:01.093Z,96
2017-10-28T00:42:03.478Z,96
2017-10-28T00:43:05.855Z,96
2017-10-28T00:44:08.217Z,96
2017-10-28T00:45:10.953Z,96
2017-10-28T00:46:13.324Z,96
2017-10-28T00:47:15.689Z,96
2017-10-28T00:48:18.415Z,96
2017-10-28T00:49:20.777Z,96
2017-10-28T00:50:23.150Z,96
2017-10-28T00:51:25.543Z,96
2017-10-28T00:52:27.903Z,96
2017-10-28T00:53:30.289Z,96
2017-10-28T00:54:32.655Z,96
2017-10-28T00:55:35.381Z,96
2017-10-28T00:56:37.750Z,96
2017-10-28T00:57:40.487Z,96
2017-10-28T00:58:42.840Z,96
2017-10-28T00:59:45.220Z,96
2017-10-28T01:00:47.580Z,96
2017-10-28T01:01:49.954Z,96
2017-10-28T01:02:52.327Z,96
2017-10-28T01:03:54.699Z,96
2017-10-28T01:04:57.069Z,96
2017-10-28T01:05:59.489Z,96
2017-10-28T01:07:01.821Z,96
2017-10-28T01:08:04.200Z,96
2017-10-28T01:09:06.573Z,96
2017-10-28T01:10:08.954Z,96
2017-10-28T01:11:11.331Z,96
2017-10-28T01:12:13.703Z,96
2017-10-28T01:13:16.076Z,97
2017-10-28T01:14:18.442Z,97
2017-10-28T01:15:20.821Z,97
2017-10-28T01:16:23.191Z,97
2017-10-28T01:17:25.559Z,97
2017-10-28T01:18:27.932Z,97
2017-10-28T01:19:30.655Z,97
2017-10-28T01:20:33.375Z,97
2017-10-28T01:21:35.776Z,97
2017-10-28T01:22:38.123Z,98
2017-10-28T01:23:40.842Z,97
2017-10-28T01:24:43.220Z,98
2017-10-28T01:25:45.596Z,98
2017-10-28T01:26:47.959Z,98
2017-10-28T01:27:50.328Z,98
2017-10-28T01:28:52.705Z,98
2017-10-28T01:29:55.079Z,98
2017-10-28T01:30:57.446Z,98
2017-10-28T01:32:00.171Z,98
2017-10-28T01:33:02.544Z,98
2017-10-28T01:34:05.635Z,98
2017-10-28T01:35:08.015Z,98
2017-10-28T01:36:10.737Z,98
2017-10-28T01:37:13.122Z,98
2017-10-28T01:38:15.838Z,98
2017-10-28T01:39:18.203Z,98
2017-10-28T01:40:20.577Z,98
2017-10-28T01:41:22.933Z,97
2017-10-28T01:42:25.310Z,97
2017-10-28T01:43:27.684Z,97
2017-10-28T01:44:30.055Z,97
2017-10-28T01:45:32.433Z,97
2017-10-28T01:46:34.805Z,97
2017-10-28T01:47:37.187Z,97
2017-10-28T01:48:39.564Z,97
2017-10-28T01:49:41.930Z,97
2017-10-28T01:50:44.308Z,97
2017-10-28T01:51:47.028Z,97
2017-10-28T01:52:49.397Z,97
2017-10-28T01:53:51.774Z,97
2017-10-28T01:54:54.151Z,97
2017-10-28T01:55:57.228Z,97
2017-10-28T01:56:59.614Z,97
2017-10-28T01:58:01.983Z,97
2017-10-28T01:59:04.350Z,97
2017-10-28T02:00:06.728Z,97
2017-10-28T02:01:09.449Z,96
2017-10-28T02:02:11.842Z,96
2017-10-28T02:03:14.199Z,96
2017-10-28T02:04:16.568Z,96
2017-10-28T02:05:18.933Z,96
2017-10-28T02:06:21.304Z,96
2017-10-28T02:07:23.705Z,96
2017-10-28T02:08:26.072Z,96
2017-10-28T02:09:28.434Z,96
2017-10-28T02:10:30.811Z,96
2017-10-28T02:11:33.180Z,96
2017-10-28T02:12:35.557Z,96
2017-10-28T02:13:38.280Z,96
2017-10-28T02:14:40.641Z,96
2017-10-28T02:15:43.028Z,96
2017-10-28T02:16:45.403Z,96
2017-10-28T02:17:47.771Z,96
2017-10-28T02:18:50.146Z,96
2017-10-28T02:19:52.519Z,96
2017-10-28T02:20:54.881Z,96
2017-10-28T02:21:57.264Z,96
2017-10-28T02:22:59.639Z,96
2017-10-28T02:24:02.002Z,96
2017-10-28T02:25:04.377Z,96
2017-10-28T02:26:06.748Z,96
2017-10-28T02:27:09.473Z,96
2017-10-28T02:28:11.845Z,96
2017-10-28T02:29:14.209Z,97
2017-10-28T02:30:16.583Z,97
2017-10-28T02:31:18.971Z,97
2017-10-28T02:32:21.343Z,98
2017-10-28T02:33:23.720Z,98
2017-10-28T02:34:26.088Z,98
2017-10-28T02:35:28.457Z,99
2017-10-28T02:36:30.836Z,99
2017-10-28T02:37:33.902Z,99
2017-10-28T02:38:36.280Z,99
2017-10-28T02:39:38.651Z,100
2017-10-28T02:40:41.010Z,100
2017-10-28T02:41:43.387Z,100
2017-10-28T02:42:45.772Z,100
2017-10-28T02:43:48.141Z,100
2017-10-28T02:44:50.527Z,100
2017-10-28T02:45:52.893Z,100
2017-10-28T02:46:55.257Z,100
2017-10-28T02:47:57.638Z,100
2017-10-28T02:49:00.013Z,100
2017-10-28T02:50:02.366Z,100
2017-10-28T02:51:05.112Z,100
2017-10-28T02:52:07.474Z,100
2017-10-28T02:53:09.858Z,100
2017-10-28T02:54:12.578Z,100
2017-10-28T02:55:14.942Z,100
2017-10-28T02:56:17.308Z,100
2017-10-28T02:57:19.692Z,100
2017-10-28T02:58:22.436Z,100
2017-10-28T02:59:25.160Z,100
2017-10-28T03:00:27.538Z,100
2017-10-28T03:01:29.910Z,100
2017-10-28T03:02:32.295Z,100
2017-10-28T03:03:34.669Z,100
2017-10-28T03:04:37.033Z,100
2017-10-28T03:05:39.750Z,100
2017-10-28T03:06:42.478Z,100
2017-10-28T03:07:44.857Z,100
2017-10-28T03:08:47.227Z,100
2017-10-28T03:09:49.596Z,100
2017-10-28T03:10:51.972Z,100
2017-10-28T03:11:54.337Z,100
2017-10-28T03:12:56.714Z,100
2017-10-28T03:13:59.086Z,100
2017-10-28T03:15:01.448Z,100
2017-10-28T03:16:03.824Z,100
2017-10-28T03:17:06.550Z,100
2017-10-28T03:18:08.914Z,100
2017-10-28T03:19:11.290Z,100
2017-10-28T03:20:13.669Z,100
2017-10-28T03:21:16.039Z,100
2017-10-28T03:22:18.408Z,100
2017-10-28T03:23:21.126Z,100
2017-10-28T03:24:23.494Z,100
2017-10-28T03:25:25.868Z,100
2017-10-28T03:26:28.241Z,100
2017-10-28T03:27:30.620Z,100
2017-10-28T03:28:32.987Z,99
2017-10-28T03:29:35.355Z,99
2017-10-28T03:30:37.726Z,99
2017-10-28T03:31:40.099Z,99
2017-10-28T03:32:42.469Z,99
2017-10-28T03:33:45.187Z,99
2017-10-28T03:34:47.551Z,99
2017-10-28T03:35:49.925Z,99
2017-10-28T03:36:52.303Z,99
2017-10-28T03:37:54.670Z,99
2017-10-28T03:38:57.047Z,98
2017-10-28T03:39:59.418Z,98
2017-10-28T03:41:02.144Z,98
2017-10-28T03:42:04.521Z,98
2017-10-28T03:43:06.900Z,98
2017-10-28T03:44:09.265Z,98
2017-10-28T03:45:11.640Z,98
2017-10-28T03:46:14.007Z,98
2017-10-28T03:47:16.377Z,98
2017-10-28T03:48:18.749Z,98
2017-10-28T03:49:21.128Z,98
2017-10-28T03:50:23.850Z,98
2017-10-28T03:51:26.218Z,98
2017-10-28T03:52:28.597Z,98
2017-10-28T03:53:30.958Z,98
2017-10-28T03:54:33.338Z,98
2017-10-28T03:55:35.710Z,98
2017-10-28T03:56:38.078Z,98
2017-10-28T03:57:40.806Z,98
2017-10-28T03:58:43.176Z,98
2017-10-28T03:59:45.549Z,98
2017-10-28T04:00:47.916Z,98
2017-10-28T04:01:50.642Z,98
2017-10-28T04:02:53.006Z,97
2017-10-28T04:03:55.387Z,97
2017-10-28T04:04:57.758Z,97
2017-10-28T04:06:00.127Z,97
2017-10-28T04:07:02.497Z,97
2017-10-28T04:08:04.874Z,97
2017-10-28T04:09:07.241Z,98
2017-10-28T04:10:09.613Z,98
2017-10-28T04:11:11.990Z,97
2017-10-28T04:12:15.421Z,97
2017-10-28T04:13:18.155Z,97
2017-10-28T04:14:20.533Z,97
2017-10-28T04:15:22.896Z,98
2017-10-28T04:16:25.262Z,98
2017-10-28T04:17:27.637Z,98
2017-10-28T04:18:30.008Z,98
2017-10-28T04:19:32.740Z,98
2017-10-28T04:20:35.108Z,98
2017-10-28T04:21:37.478Z,98
2017-10-28T04:22:40.207Z,97
2017-10-28T04:23:42.584Z,97
2017-10-28T04:24:44.953Z,97
2017-10-28T04:25:47.320Z,97
2017-10-28T04:26:49.685Z,97
2017-10-28T04:27:52.067Z,97
2017-10-28T04:28:54.433Z,97
2017-10-28T04:29:56.804Z,97
2017-10-28T04:30:59.169Z,97
2017-10-28T04:32:01.893Z,97
2017-10-28T04:33:04.265Z,97
2017-10-28T04:34:06.645Z,96
2017-10-28T04:35:09.361Z,96
2017-10-28T04:36:12.098Z,96
2017-10-28T04:37:14.817Z,95
2017-10-28T04:38:17.186Z,95
2017-10-28T04:39:19.564Z,95
2017-10-28T04:40:21.943Z,95
2017-10-28T04:41:24.658Z,95
2017-10-28T04:42:27.036Z,95
2017-10-28T04:43:29.410Z,95
2017-10-28T04:44:31.787Z,95
2017-10-28T04:45:34.160Z,94
2017-10-28T04:46:36.524Z,94
2017-10-28T04:47:39.248Z,94
2017-10-28T04:48:41.978Z,94
2017-10-28T04:49:44.353Z,94
2017-10-28T04:50:46.735Z,94
2017-10-28T04:51:49.091Z,94
2017-10-28T04:52:51.469Z,94
2017-10-28T04:53:53.852Z,95
2017-10-28T04:54:56.224Z,95
2017-10-28T04:55:58.598Z,94
2017-10-28T04:57:01.389Z,94
2017-10-28T04:58:03.759Z,94
2017-10-28T04:59:06.146Z,95
2017-10-28T05:00:08.515Z,95
2017-10-28T05:01:10.881Z,95
2017-10-28T05:02:13.259Z,95
2017-10-28T05:03:15.640Z,95
2017-10-28T05:04:18.016Z,95
2017-10-28T05:05:21.085Z,95
2017-10-28T05:06:23.479Z,95
2017-10-28T05:07:25.839Z,95
2017-10-28T05:08:28.215Z,95
2017-10-28T05:09:30.590Z,95
2017-10-28T05:10:32.970Z,95
2017-10-28T05:11:35.342Z,95
2017-10-28T05:12:37.726Z,95
2017-10-28T05:13:40.096Z,95
2017-10-28T05:14:42.476Z,95
2017-10-28T05:15:44.843Z,95
2017-10-28T05:16:47.215Z,96
2017-10-28T05:17:49.575Z,96
2017-10-28T05:18:52.311Z,96
2017-10-28T05:19:54.685Z,96
2017-10-28T05:20:57.054Z,96
2017-10-28T05:21:59.774Z,96
2017-10-28T05:23:02.141Z,95
2017-10-28T05:24:04.519Z,96
2017-10-28T05:25:07.257Z,96
2017-10-28T05:26:09.620Z,95
2017-10-28T05:27:12.005Z,95
2017-10-28T05:28:14.380Z,95
2017-10-28T05:29:16.755Z,95
2017-10-28T05:30:19.137Z,95
2017-10-28T05:31:21.513Z,95
2017-10-28T05:32:24.224Z,95
2017-10-28T05:33:26.603Z,95
2017-10-28T05:34:28.972Z,95
2017-10-28T05:35:31.338Z,96
2017-10-28T05:36:33.702Z,96
2017-10-28T05:37:36.071Z,95
2017-10-28T05:38:38.443Z,96
2017-10-28T05:39:40.814Z,96
2017-10-28T05:40:43.188Z,96
2017-10-28T05:41:45.554Z,95
2017-10-28T05:42:49.092Z,95
2017-10-28T05:43:51.508Z,95
2017-10-28T05:44:53.883Z,95
2017-10-28T05:45:56.265Z,95
2017-10-28T05:46:58.636Z,96
2017-10-28T05:48:01.361Z,96
2017-10-28T05:49:03.729Z,96
2017-10-28T05:50:06.133Z,96
2017-10-28T05:51:08.513Z,96
2017-10-28T05:52:10.887Z,96
2017-10-28T05:53:13.272Z,96
2017-10-28T05:54:15.651Z,96
2017-10-28T05:55:18.020Z,96
2017-10-28T05:56:20.394Z,96
2017-10-28T05:57:23.117Z,96
2017-10-28T05:58:25.493Z,96
2017-10-28T05:59:27.882Z,96
2017-10-28T06:00:30.256Z,96
2017-10-28T06:01:32.893Z,95
2017-10-28T06:02:35.627Z,95
2017-10-28T06:03:37.995Z,95
2017-10-28T06:04:40.369Z,95
2017-10-28T06:05:42.750Z,95
2017-10-28T06:06:45.469Z,95
2017-10-28T06:07:47.837Z,95
2017-10-28T06:08:50.562Z,95
2017-10-28T06:09:52.943Z,95
2017-10-28T06:10:55.674Z,95
2017-10-28T06:11:58.047Z,95
2017-10-28T06:13:01.501Z,95
2017-10-28T06:14:05.197Z,95
2017-10-28T06:15:07.586Z,95
2017-10-28T06:16:09.959Z,95
2017-10-28T06:17:12.322Z,95
2017-10-28T06:18:14.700Z,95
2017-10-28T06:19:17.066Z,95
2017-10-28T06:20:19.441Z,95
2017-10-28T06:21:21.992Z,95
2017-10-28T06:22:24.405Z,95
2017-10-28T06:23:26.791Z,95
2017-10-28T06:24:29.186Z,95
2017-10-28T06:25:31.547Z,95
2017-10-28T06:26:33.927Z,95
2017-10-28T06:27:36.651Z,95
2017-10-28T06:28:39.071Z,95
2017-10-28T06:29:41.442Z,95
2017-10-28T06:30:43.806Z,95
2017-10-28T06:31:46.179Z,95
2017-10-28T06:32:48.562Z,95
2017-10-28T06:33:50.996Z,95
2017-10-28T06:34:53.364Z,95
2017-10-28T06:35:55.897Z,94
2017-10-28T06:36:58.278Z,94
2017-10-28T06:38:00.661Z,94
2017-10-28T06:39:03.163Z,94
2017-10-28T06:40:05.897Z,94
2017-10-28T06:41:08.392Z,94
2017-10-28T06:42:10.766Z,94
2017-10-28T06:43:13.184Z,94
2017-10-28T06:44:15.556Z,94
2017-10-28T06:45:18.169Z,94
2017-10-28T06:46:20.548Z,94
2017-10-28T06:47:22.930Z,94
2017-10-28T06:48:25.402Z,94
2017-10-28T06:49:27.776Z,94
2017-10-28T06:50:30.244Z,94
2017-10-28T06:51:33.567Z,94
2017-10-28T06:52:35.945Z,94
2017-10-28T06:53:38.336Z,94
2017-10-28T06:54:40.712Z,94
2017-10-28T06:55:43.083Z,94
2017-10-28T06:56:45.451Z,94
2017-10-28T06:57:47.844Z,94
2017-10-28T06:58:50.208Z,93
2017-10-28T06:59:52.592Z,94
2017-10-28T07:00:54.964Z,94
2017-10-28T07:01:57.349Z,94
2017-10-28T07:02:59.740Z,93
2017-10-28T07:04:02.114Z,93
2017-10-28T07:05:04.506Z,93
2017-10-28T07:06:06.880Z,93
2017-10-28T07:07:09.244Z,93
2017-10-28T07:08:11.617Z,93
2017-10-28T07:09:13.999Z,93
2017-10-28T07:10:16.379Z,93
2017-10-28T07:11:18.756Z,93
2017-10-28T07:12:21.121Z,93
2017-10-28T07:13:23.506Z,93
2017-10-28T07:14:26.250Z,93
2017-10-28T07:15:28.621Z,93
2017-10-28T07:16:30.997Z,93
2017-10-28T07:17:33.391Z,93
2017-10-28T07:18:35.756Z,92
2017-10-28T07:19:38.130Z,92
2017-10-28T07:20:40.513Z,92
2017-10-28T07:21:43.231Z,93
2017-10-28T07:22:45.616Z,93
2017-10-28T07:23:47.988Z,92
2017-10-28T07:24:50.353Z,92
2017-10-28T07:25:52.741Z,92
2017-10-28T07:26:55.495Z,92
2017-10-28T07:27:57.870Z,92
2017-10-28T07:29:00.254Z,92
2017-10-28T07:30:02.967Z,92
2017-10-28T07:31:05.346Z,92
2017-10-28T07:32:08.083Z,92
2017-10-28T07:33:10.461Z,92
2017-10-28T07:34:12.841Z,92
2017-10-28T07:35:15.211Z,92
2017-10-28T07:36:17.578Z,92
2017-10-28T07:37:20.347Z,92
2017-10-28T07:38:22.738Z,92
2017-10-28T07:39:25.112Z,92
2017-10-28T07:40:27.854Z,91
2017-10-28T07:41:30.229Z,91
2017-10-28T07:42:32.603Z,91
2017-10-28T07:43:34.988Z,92
2017-10-28T07:44:37.374Z,92
2017-10-28T07:45:39.739Z,92
2017-10-28T07:46:42.121Z,92
2017-10-28T07:47:44.488Z,92
2017-10-28T07:48:46.893Z,92
2017-10-28T07:50:40.622Z,92
2017-10-28T07:51:43.081Z,92
2017-10-28T07:52:45.516Z,92
2017-10-28T07:53:47.952Z,92
2017-10-28T07:54:50.388Z,92
2017-10-28T07:55:52.811Z,92
2017-10-28T07:56:55.240Z,92
2017-10-28T07:57:58.038Z,92
2017-10-28T07:59:00.462Z,92
2017-10-28T08:00:03.249Z,91
2017-10-28T08:01:05.676Z,91
2017-10-28T08:02:08.110Z,91
2017-10-28T08:03:10.534Z,91
2017-10-28T08:04:12.970Z,91
2017-10-28T08:05:15.401Z,91
2017-10-28T08:06:17.838Z,91
2017-10-28T08:07:20.264Z,91
2017-10-28T08:08:22.687Z,91
2017-10-28T08:09:25.112Z,91
2017-10-28T08:10:27.543Z,91
2017-10-28T08:11:29.959Z,90
2017-10-28T08:12:32.393Z,91
2017-10-28T08:13:34.810Z,91
2017-10-28T08:14:37.250Z,91
2017-10-28T08:15:39.676Z,91
2017-10-28T08:16:42.104Z,91
2017-10-28T08:17:44.535Z,90
2017-10-28T08:18:46.957Z,90
2017-10-28T08:19:49.402Z,90
2017-10-28T08:20:51.829Z,90
2017-10-28T08:21:54.247Z,89
2017-10-28T08:22:56.682Z,89
2017-10-28T08:23:59.481Z,89
2017-10-28T08:25:01.899Z,89
2017-10-28T08:26:04.332Z,89
2017-10-28T08:27:06.758Z,88
2017-10-28T08:28:09.540Z,88
2017-10-28T08:29:11.977Z,88
2017-10-28T08:30:14.781Z,88
2017-10-28T08:31:17.517Z,88
2017-10-28T08:32:19.950Z,88
2017-10-28T08:33:22.377Z,87
2017-10-28T08:34:24.812Z,88
2017-10-28T08:35:27.244Z,87
2017-10-28T08:36:29.666Z,87
2017-10-28T08:37:32.101Z,87
2017-10-28T08:38:34.533Z,87
2017-10-28T08:39:37.318Z,87
2017-10-28T08:40:39.741Z,87
2017-10-28T08:41:42.538Z,87
2017-10-28T08:42:45.313Z,87
2017-10-28T08:43:47.744Z,87
2017-10-28T08:44:50.175Z,87
2017-10-28T08:45:52.612Z,86
2017-10-28T08:46:55.037Z,86
2017-10-28T08:47:57.478Z,86
2017-10-28T08:49:00.274Z,86
2017-10-28T08:50:02.697Z,86
2017-10-28T08:51:05.134Z,86
2017-10-28T08:52:07.568Z,86
2017-10-28T08:53:09.988Z,86
2017-10-28T08:54:12.780Z,86
2017-10-28T08:55:15.356Z,86
2017-10-28T08:56:17.786Z,87
2017-10-28T08:57:20.226Z,86
2017-10-28T08:58:22.758Z,86
2017-10-28T08:59:25.189Z,86
2017-10-28T09:00:27.640Z,85
2017-10-28T09:01:30.079Z,85
2017-10-28T09:02:32.493Z,85
2017-10-28T09:03:35.145Z,86
2017-10-28T09:04:37.934Z,85
2017-10-28T09:05:40.549Z,85
2017-10-28T09:06:42.984Z,85
2017-10-28T09:07:45.494Z,85
2017-10-28T09:08:47.921Z,85
2017-10-28T09:09:50.360Z,84
2017-10-28T09:10:52.936Z,85
2017-10-28T09:11:55.361Z,84
2017-10-28T09:12:58.530Z,84
2017-10-28T09:14:00.963Z,84
2017-10-28T09:15:03.618Z,84
2017-10-28T09:16:06.048Z,85
2017-10-28T09:17:08.475Z,84
2017-10-28T09:18:10.911Z,84
2017-10-28T09:19:13.339Z,84
2017-10-28T09:20:15.767Z,83
2017-10-28T09:21:18.188Z,84
2017-10-28T09:22:20.616Z,83
2017-10-28T09:23:23.043Z,83
2017-10-28T09:24:25.473Z,84
2017-10-28T09:25:27.905Z,85
2017-10-28T09:26:30.340Z,84
2017-10-28T09:27:32.769Z,84
2017-10-28T09:28:35.211Z,84
2017-10-28T09:29:37.640Z,84
2017-10-28T09:30:40.071Z,84
2017-10-28T09:31:42.499Z,83
2017-10-28T09:32:45.279Z,84
2017-10-28T09:34:19.849Z,83
2017-10-28T09:35:22.272Z,83
2017-10-28T09:36:24.696Z,83
2017-10-28T09:37:27.123Z,83
2017-10-28T09:38:29.557Z,83
2017-10-28T09:39:31.976Z,84
2017-10-28T09:40:34.414Z,83
2017-10-28T09:41:36.837Z,84
2017-10-28T09:42:39.281Z,84
2017-10-28T09:43:41.694Z,83
2017-10-28T09:44:44.129Z,83
2017-10-28T09:45:46.553Z,84
2017-10-28T09:46:49.345Z,84
2017-10-28T09:47:51.767Z,83
2017-10-28T09:48:54.203Z,83
2017-10-28T09:49:56.631Z,83
2017-10-28T09:50:59.057Z,83
2017-10-28T09:52:01.495Z,83
2017-10-28T09:53:03.919Z,83
2017-10-28T09:54:06.336Z,84
2017-10-28T09:55:08.783Z,83
2017-10-28T09:56:11.203Z,83
2017-10-28T09:57:13.987Z,83
2017-10-28T09:58:16.418Z,83
2017-10-28T09:59:18.838Z,82
2017-10-28T10:00:21.273Z,83
2017-10-28T10:01:23.703Z,83
2017-10-28T10:02:26.148Z,83
2017-10-28T10:03:28.578Z,83
2017-10-28T10:04:31.006Z,83
2017-10-28T10:05:33.434Z,83
2017-10-28T10:06:35.869Z,84
2017-10-28T10:07:38.301Z,83
2017-10-28T10:08:41.442Z,84
2017-10-28T10:09:43.861Z,83
2017-10-28T10:10:46.282Z,83
2017-10-28T10:11:48.725Z,83
2017-10-28T10:12:51.152Z,83
2017-10-28T10:13:53.570Z,83
2017-10-28T10:14:56.355Z,83
2017-10-28T10:15:58.785Z,83
2017-10-28T10:17:01.217Z,83
2017-10-28T10:18:03.653Z,83
2017-10-28T10:19:06.072Z,83
2017-10-28T10:20:08.507Z,83
2017-10-28T10:21:10.941Z,82
2017-10-28T10:22:13.729Z,83
2017-10-28T10:23:16.160Z,83
2017-10-28T10:24:18.594Z,83
2017-10-28T10:25:21.016Z,82
2017-10-28T10:26:23.451Z,82
2017-10-28T10:27:25.884Z,82
2017-10-28T10:28:28.298Z,82
2017-10-28T10:29:30.736Z,81
2017-10-28T10:30:33.168Z,82
2017-10-28T10:31:35.601Z,82
2017-10-28T10:32:38.035Z,82
2017-10-28T10:33:40.473Z,83
2017-10-28T10:34:42.900Z,82
2017-10-28T10:35:45.317Z,82
2017-10-28T10:36:47.746Z,82
2017-10-28T10:37:50.182Z,83
2017-10-28T10:38:52.961Z,83
2017-10-28T10:39:55.394Z,83
2017-10-28T10:40:57.828Z,83
2017-10-28T10:42:00.609Z,83
2017-10-28T10:43:03.050Z,83
2017-10-28T10:44:05.485Z,82
2017-10-28T10:45:07.905Z,83
2017-10-28T10:46:10.338Z,82
2017-10-28T10:47:12.768Z,82
2017-10-28T10:48:15.558Z,82
2017-10-28T10:49:17.993Z,82
2017-10-28T10:50:20.416Z,82
2017-10-28T10:51:22.844Z,81
2017-10-28T10:52:25.279Z,82
2017-10-28T10:53:27.699Z,81
2017-10-28T10:54:30.131Z,81
2017-10-28T10:55:32.571Z,82
2017-10-28T10:56:34.993Z,82
2017-10-28T10:57:37.776Z,82
2017-10-28T10:58:40.213Z,82
2017-10-28T10:59:42.638Z,82
2017-10-28T11:00:45.077Z,82
2017-10-28T11:01:47.511Z,82
2017-10-28T11:02:49.933Z,82
2017-10-28T11:03:52.363Z,82
2017-10-28T11:04:54.788Z,81
2017-10-28T11:05:57.570Z,82
2017-10-28T11:07:00.351Z,82
2017-10-28T11:08:02.785Z,82
2017-10-28T11:09:05.210Z,82
2017-10-28T11:10:08.007Z,82
2017-10-28T11:11:10.434Z,82
2017-10-28T11:12:12.868Z,82
2017-10-28T11:13:15.294Z,82
2017-10-28T11:14:17.724Z,83
2017-10-28T11:15:20.153Z,83
2017-10-28T11:16:22.581Z,82
2017-10-28T11:17:25.002Z,82
2017-10-28T11:18:27.434Z,82
2017-10-28T11:19:29.860Z,82
2017-10-28T11:20:32.287Z,82
2017-10-28T11:21:34.716Z,82
2017-10-28T11:22:37.138Z,82
2017-10-28T11:23:39.934Z,82
2017-10-28T11:24:42.753Z,82
2017-10-28T11:25:45.363Z,82
2017-10-28T11:26:47.802Z,82
2017-10-28T11:27:50.336Z,82
2017-10-28T11:28:52.769Z,82
2017-10-28T11:29:55.198Z,82
2017-10-28T11:30:57.925Z,82
2017-10-28T11:32:00.716Z,82
2017-10-28T11:33:03.445Z,83
2017-10-28T11:34:05.867Z,83
2017-10-28T11:35:08.307Z,84
2017-10-28T11:36:10.733Z,84
2017-10-28T11:37:13.164Z,85
2017-10-28T11:38:15.603Z,85
2017-10-28T11:39:18.119Z,86
2017-10-28T11:40:20.688Z,86
2017-10-28T11:41:23.330Z,85
2017-10-28T11:42:25.919Z,85
2017-10-28T11:43:28.339Z,85
2017-10-28T11:44:31.239Z,85
2017-10-28T11:45:33.978Z,85
2017-10-28T11:46:36.574Z,85
2017-10-28T11:47:39.009Z,85
2017-10-28T11:48:41.452Z,84
2017-10-28T11:49:43.923Z,84
2017-10-28T11:50:46.376Z,85
2017-10-28T11:51:48.808Z,85
2017-10-28T11:52:51.243Z,85
2017-10-28T11:53:53.949Z,85
2017-10-28T11:54:56.377Z,85
2017-10-28T11:55:59.004Z,85
2017-10-28T11:57:01.421Z,85
2017-10-28T11:58:04.561Z,85
2017-10-28T11:59:06.988Z,85
2017-10-28T12:00:09.415Z,85
2017-10-28T12:01:11.837Z,85
2017-10-28T12:02:14.622Z,86
2017-10-28T12:03:17.052Z,86
2017-10-28T12:04:19.989Z,86
2017-10-28T12:05:22.421Z,85
2017-10-28T12:06:24.910Z,86
2017-10-28T12:07:29.069Z,86
2017-10-28T12:08:31.857Z,86
2017-10-28T12:09:35.108Z,86
2017-10-28T12:10:37.861Z,86
2017-10-28T12:11:40.707Z,86
2017-10-28T12:12:43.474Z,86
2017-10-28T12:13:46.371Z,86
2017-10-28T12:14:49.168Z,86
2017-10-28T12:15:52.490Z,87
2017-10-28T12:16:55.015Z,87
2017-10-28T12:17:57.780Z,87
2017-10-28T12:19:00.705Z,87
2017-10-28T12:20:03.438Z,87
2017-10-28T12:21:06.032Z,87
2017-10-28T12:22:08.468Z,87
2017-10-28T12:23:10.902Z,87
2017-10-28T12:24:13.506Z,87
2017-10-28T12:26:20.581Z,87
2017-10-28T12:27:23.075Z,88
2017-10-28T12:28:25.893Z,87
2017-10-28T12:29:28.622Z,87
2017-10-28T12:30:31.059Z,87
2017-10-28T12:31:33.485Z,88
2017-10-28T12:32:35.910Z,87
2017-10-28T12:33:38.345Z,87
2017-10-28T12:34:40.767Z,87
2017-10-28T12:35:43.192Z,87
2017-10-28T12:36:46.058Z,87
2017-10-28T12:37:48.498Z,87
2017-10-28T12:38:50.948Z,87
2017-10-28T12:39:53.417Z,87
2017-10-28T12:40:55.977Z,87
2017-10-28T12:41:58.452Z,88
2017-10-28T12:43:00.975Z,88
2017-10-28T12:44:03.483Z,88
2017-10-28T12:45:06.017Z,88
2017-10-28T12:46:08.520Z,88
2017-10-28T12:47:11.009Z,88
2017-10-28T12:48:13.445Z,88
2017-10-28T12:49:15.915Z,88
2017-10-28T12:50:18.446Z,88
2017-10-28T12:51:20.887Z,88
2017-10-28T12:52:23.713Z,88
2017-10-28T12:53:26.147Z,89
2017-10-28T12:54:28.614Z,89
2017-10-28T12:55:31.116Z,89
2017-10-28T12:56:33.564Z,89
2017-10-28T12:57:36.720Z,89
2017-10-28T12:58:39.509Z,89
2017-10-28T12:59:41.953Z,89
2017-10-28T13:00:44.390Z,89
2017-10-28T13:01:47.188Z,89
2017-10-28T13:02:49.624Z,89
2017-10-28T13:03:52.055Z,89
2017-10-28T13:04:54.505Z,89
2017-10-28T13:05:56.941Z,89
2017-10-28T13:06:59.381Z,88
2017-10-28T13:08:01.928Z,88
2017-10-28T13:09:04.364Z,88
2017-10-28T13:10:06.798Z,88
2017-10-28T13:11:09.238Z,88
2017-10-28T13:12:13.466Z,87
2017-10-28T13:13:15.898Z,87
2017-10-28T13:14:18.348Z,87
2017-10-28T13:15:20.776Z,86
2017-10-28T13:16:23.414Z,86
2017-10-28T13:17:25.839Z,86
2017-10-28T13:18:28.992Z,86
2017-10-28T13:19:31.427Z,86
2017-10-28T13:20:33.860Z,86
2017-10-28T13:21:36.300Z,86
2017-10-28T13:22:38.744Z,85
2017-10-28T13:23:41.168Z,85
2017-10-28T13:24:43.616Z,85
2017-10-28T13:25:46.051Z,85
2017-10-28T13:26:49.277Z,86
2017-10-28T13:27:51.725Z,85
2017-10-28T13:28:54.142Z,85
2017-10-28T13:29:56.570Z,84
2017-10-28T13:30:59.035Z,84
2017-10-28T13:32:01.455Z,84
2017-10-28T13:33:04.035Z,84
2017-10-28T13:34:06.834Z,83
2017-10-28T13:35:09.274Z,83
2017-10-28T13:36:11.708Z,83
2017-10-28T13:37:14.154Z,83
2017-10-28T13:38:16.579Z,83
2017-10-28T13:39:19.365Z,83
2017-10-28T13:40:21.790Z,83
2017-10-28T13:41:24.221Z,84
2017-10-28T13:42:26.670Z,83
2017-10-28T13:43:29.792Z,83
2017-10-28T13:44:32.217Z,83
2017-10-28T13:45:34.650Z,84
2017-10-28T13:46:37.079Z,84
2017-10-28T13:47:39.529Z,84
2017-10-28T13:48:42.402Z,84
2017-10-28T13:49:44.829Z,83
2017-10-28T13:50:47.677Z,83
2017-10-28T13:51:50.126Z,84
2017-10-28T13:52:52.572Z,84
2017-10-28T13:53:55.173Z,84
2017-10-28T13:54:57.594Z,83
2017-10-28T13:56:00.032Z,83
2017-10-28T13:57:02.530Z,83
2017-10-28T13:58:05.316Z,83
2017-10-28T13:59:07.751Z,83
2017-10-28T14:00:10.181Z,84
2017-10-28T14:01:12.617Z,84
2017-10-28T14:02:15.055Z,84
2017-10-28T14:03:17.500Z,84
2017-10-28T14:04:20.093Z,84
2017-10-28T14:05:22.534Z,84
2017-10-28T14:06:25.110Z,85
2017-10-28T14:07:27.551Z,85
2017-10-28T14:08:29.975Z,85
2017-10-28T14:09:32.421Z,85
2017-10-28T14:10:34.860Z,85
2017-10-28T14:11:37.302Z,85
2017-10-28T14:12:39.732Z,85
2017-10-28T14:13:42.181Z,85
2017-10-28T14:14:44.953Z,85
2017-10-28T14:15:47.392Z,85
2017-10-28T14:16:49.826Z,85
2017-10-28T14:17:52.443Z,85
2017-10-28T14:18:55.457Z,85
2017-10-28T14:19:57.897Z,85
2017-10-28T14:21:00.313Z,85
2017-10-28T14:22:02.775Z,85
2017-10-28T14:23:05.572Z,85
2017-10-28T14:24:08.002Z,85
2017-10-28T14:25:10.432Z,86
2017-10-28T14:26:12.877Z,85
2017-10-28T14:27:15.309Z,86
2017-10-28T14:28:17.749Z,86
2017-10-28T14:29:20.173Z,86
2017-10-28T14:30:22.610Z,86
2017-10-28T14:31:25.038Z,86
2017-10-28T14:32:27.491Z,85
2017-10-28T14:33:30.273Z,85
2017-10-28T14:34:32.702Z,85
2017-10-28T14:35:35.140Z,84
2017-10-28T14:36:37.568Z,84
2017-10-28T14:37:40.010Z,84
2017-10-28T14:38:42.445Z,84
2017-10-28T14:39:44.873Z,84
2017-10-28T14:40:48.595Z,84
2017-10-28T14:41:51.380Z,84
2017-10-28T14:42:54.178Z,84
2017-10-28T14:43:56.622Z,84
2017-10-28T14:44:59.765Z,84
2017-10-28T14:46:02.195Z,84
2017-10-28T14:47:04.649Z,84
2017-10-28T14:48:07.090Z,84
2017-10-28T14:49:09.535Z,84
2017-10-28T14:50:11.963Z,84
2017-10-28T14:51:14.406Z,84